Home > Products > Valid Products > TAF

000
FTUS43 KDMX 172340
TAFALO
TAF
KALO 172340Z 1800/1824 VRB04KT P6SM SCT150 BKN250
     FM181200 08008KT P6SM BKN070
     FM181800 11014KT P6SM VCSH BKN060=



000
FTUS43 KDMX 172340
TAFDSM
TAF
KDSM 172340Z 1800/1824 VRB04KT P6SM BKN070 BKN250
     FM181100 10004KT P6SM VCSH OVC050
     FM181700 13012KT P6SM VCSH SCT020 OVC035=



000
FTUS43 KDMX 172340
TAFFOD
TAF
KFOD 172340Z 1800/1824 VRB05KT P6SM SCT150 BKN250
     FM180300 06005KT P6SM BKN070 BKN150
     FM181400 11010KT 6SM BR VCSH OVC050
     FM182100 13011KT 5SM BR VCSH SCT010 OVC025=



000
FTUS43 KDMX 172340
TAFFOD
TAF
KFOD 172340Z 1800/1824 VRB05KT P6SM SCT150 BKN250
     FM180300 06005KT P6SM BKN070 BKN150
     FM181400 11010KT 6SM BR VCSH OVC050
     FM182100 13011KT 5SM BR VCSH SCT010 OVC025=



000
FTUS43 KDMX 172340
TAFMCW
TAF
KMCW 172340Z 1800/1824 36004KT P6SM SCT150 BKN250
     FM180800 04006KT P6SM BKN070 BKN150
     FM181600 11014KT P6SM VCSH BKN060 OVC100=



000
FTUS43 KDMX 172340
TAFMCW
TAF
KMCW 172340Z 1800/1824 36004KT P6SM SCT150 BKN250
     FM180800 04006KT P6SM BKN070 BKN150
     FM181600 11014KT P6SM VCSH BKN060 OVC100=



000
FTUS43 KDMX 172340
TAFOTM
TAF
KOTM 172340Z 1800/1824 VRB04KT P6SM BKN070 BKN250
     FM181500 12008KT P6SM VCSH BKN040=



000
FTUS43 KDMX 172340
TAFDSM
TAF
KDSM 172340Z 1800/1824 VRB04KT P6SM BKN070 BKN250
     FM181100 10004KT P6SM VCSH OVC050
     FM181700 13012KT P6SM VCSH SCT020 OVC035=



000
FTUS43 KDMX 172340
TAFOTM
TAF
KOTM 172340Z 1800/1824 VRB04KT P6SM BKN070 BKN250
     FM181500 12008KT P6SM VCSH BKN040=



000
FTUS43 KDMX 172340
TAFALO
TAF
KALO 172340Z 1800/1824 VRB04KT P6SM SCT150 BKN250
     FM181200 08008KT P6SM BKN070
     FM181800 11014KT P6SM VCSH BKN060=



000
FTUS43 KDMX 172340
TAFDSM
TAF
KDSM 172340Z 1800/1824 VRB04KT P6SM BKN070 BKN250
     FM181100 10004KT P6SM VCSH OVC050
     FM181700 13012KT P6SM VCSH SCT020 OVC035=



000
FTUS43 KDMX 172340
TAFALO
TAF
KALO 172340Z 1800/1824 VRB04KT P6SM SCT150 BKN250
     FM181200 08008KT P6SM BKN070
     FM181800 11014KT P6SM VCSH BKN060=



000
FTUS43 KDMX 172340
TAFOTM
TAF
KOTM 172340Z 1800/1824 VRB04KT P6SM BKN070 BKN250
     FM181500 12008KT P6SM VCSH BKN040=



000
FTUS43 KDMX 171732
TAFALO
TAF
KALO 171732Z 1718/1818 VRB04KT P6SM SCT120
     FM181200 09008KT P6SM SCT050 OVC090=



000
FTUS43 KDMX 171732
TAFDSM
TAF
KDSM 171732Z 1718/1818 VRB05KT P6SM FEW050 SCT150
     FM172000 09005KT P6SM SCT040 SCT080
     FM180900 VRB04KT 5SM RA BKN040 OVC060=



000
FTUS43 KDMX 171732
TAFOTM
TAF
KOTM 171732Z 1718/1818 VRB04KT P6SM BKN050
     FM180900 10006KT 6SM -RA BKN035 OVC060=



000
FTUS43 KDMX 171732
TAFMCW
TAF
KMCW 171732Z 1718/1818 VRB04KT P6SM SCT100
     FM180500 06006KT P6SM SCT070 BKN150
     FM181400 09011KT P6SM -RA BKN060 OVC100=



000
FTUS43 KDMX 171732
TAFFOD
TAF
KFOD 171732Z 1718/1818 VRB05KT P6SM SCT100
     FM180200 04005KT P6SM SCT060 BKN150
     FM180900 09008KT 5SM RA OVC050=



000
FTUS43 KDMX 171732
TAFOTM
TAF
KOTM 171732Z 1718/1818 VRB04KT P6SM BKN050
     FM180900 10006KT 6SM -RA BKN035 OVC060=



000
FTUS43 KDMX 171732
TAFDSM
TAF
KDSM 171732Z 1718/1818 VRB05KT P6SM FEW050 SCT150
     FM172000 09005KT P6SM SCT040 SCT080
     FM180900 VRB04KT 5SM RA BKN040 OVC060=



000
FTUS43 KDMX 171732
TAFFOD
TAF
KFOD 171732Z 1718/1818 VRB05KT P6SM SCT100
     FM180200 04005KT P6SM SCT060 BKN150
     FM180900 09008KT 5SM RA OVC050=



000
FTUS43 KDMX 171732
TAFALO
TAF
KALO 171732Z 1718/1818 VRB04KT P6SM SCT120
     FM181200 09008KT P6SM SCT050 OVC090=



000
FTUS43 KDMX 171732
TAFMCW
TAF
KMCW 171732Z 1718/1818 VRB04KT P6SM SCT100
     FM180500 06006KT P6SM SCT070 BKN150
     FM181400 09011KT P6SM -RA BKN060 OVC100=



000
FTUS43 KDMX 171732
TAFFOD
TAF
KFOD 171732Z 1718/1818 VRB05KT P6SM SCT100
     FM180200 04005KT P6SM SCT060 BKN150
     FM180900 09008KT 5SM RA OVC050=



000
FTUS43 KDMX 171732
TAFOTM
TAF
KOTM 171732Z 1718/1818 VRB04KT P6SM BKN050
     FM180900 10006KT 6SM -RA BKN035 OVC060=



000
FTUS43 KDMX 171732
TAFMCW
TAF
KMCW 171732Z 1718/1818 VRB04KT P6SM SCT100
     FM180500 06006KT P6SM SCT070 BKN150
     FM181400 09011KT P6SM -RA BKN060 OVC100=



000
FTUS43 KDMX 171732
TAFALO
TAF
KALO 171732Z 1718/1818 VRB04KT P6SM SCT120
     FM181200 09008KT P6SM SCT050 OVC090=



000
FTUS43 KDMX 171732
TAFDSM
TAF
KDSM 171732Z 1718/1818 VRB05KT P6SM FEW050 SCT150
     FM172000 09005KT P6SM SCT040 SCT080
     FM180900 VRB04KT 5SM RA BKN040 OVC060=



000
FTUS43 KDMX 171732
TAFOTM
TAF
KOTM 171732Z 1718/1818 VRB04KT P6SM BKN050
     FM180900 10006KT 6SM -RA BKN035 OVC060=



000
FTUS43 KDMX 171732
TAFMCW
TAF
KMCW 171732Z 1718/1818 VRB04KT P6SM SCT100
     FM180500 06006KT P6SM SCT070 BKN150
     FM181400 09011KT P6SM -RA BKN060 OVC100=



000
FTUS43 KDMX 171732
TAFALO
TAF
KALO 171732Z 1718/1818 VRB04KT P6SM SCT120
     FM181200 09008KT P6SM SCT050 OVC090=



000
FTUS43 KDMX 171732
TAFDSM
TAF
KDSM 171732Z 1718/1818 VRB05KT P6SM FEW050 SCT150
     FM172000 09005KT P6SM SCT040 SCT080
     FM180900 VRB04KT 5SM RA BKN040 OVC060=



000
FTUS43 KDMX 171732
TAFFOD
TAF
KFOD 171732Z 1718/1818 VRB05KT P6SM SCT100
     FM180200 04005KT P6SM SCT060 BKN150
     FM180900 09008KT 5SM RA OVC050=



000
FTUS43 KDMX 171300 AAA
TAFALO
TAF AMD
KALO 171300Z 1713/1812 VRB04KT P6SM SCT120
     FM180800 09004KT P6SM SCT040 BKN060=



000
FTUS43 KDMX 171300 AAA
TAFALO
TAF AMD
KALO 171300Z 1713/1812 VRB04KT P6SM SCT120
     FM180800 09004KT P6SM SCT040 BKN060=



000
FTUS43 KDMX 171300 AAA
TAFALO
TAF AMD
KALO 171300Z 1713/1812 VRB04KT P6SM SCT120
     FM180800 09004KT P6SM SCT040 BKN060=



000
FTUS43 KDMX 171300 AAA
TAFMCW
TAF AMD
KMCW 171300Z 1713/1812 VRB04KT P6SM SCT120
      TEMPO 1713/1714 5SM BR
     FM180600 08005KT P6SM SCT040 BKN060=



000
FTUS43 KDMX 171300 AAA
TAFMCW
TAF AMD
KMCW 171300Z 1713/1812 VRB04KT P6SM SCT120
      TEMPO 1713/1714 5SM BR
     FM180600 08005KT P6SM SCT040 BKN060=



000
FTUS43 KDMX 171300 AAA
TAFALO
TAF AMD
KALO 171300Z 1713/1812 VRB04KT P6SM SCT120
     FM180800 09004KT P6SM SCT040 BKN060=



000
FTUS43 KDMX 171300 AAA
TAFMCW
TAF AMD
KMCW 171300Z 1713/1812 VRB04KT P6SM SCT120
      TEMPO 1713/1714 5SM BR
     FM180600 08005KT P6SM SCT040 BKN060=



000
FTUS43 KDMX 171300 AAA
TAFDSM
TAF AMD
KDSM 171300Z 1713/1812 VRB05KT P6SM SCT120
     FM171800 13005KT P6SM SCT040 BKN080
     FM180800 10004KT P6SM VCSH SCT030 BKN050=



000
FTUS43 KDMX 171300 AAA
TAFMCW
TAF AMD
KMCW 171300Z 1713/1812 VRB04KT P6SM SCT120
      TEMPO 1713/1714 5SM BR
     FM180600 08005KT P6SM SCT040 BKN060=



000
FTUS43 KDMX 171300 AAA
TAFDSM
TAF AMD
KDSM 171300Z 1713/1812 VRB05KT P6SM SCT120
     FM171800 13005KT P6SM SCT040 BKN080
     FM180800 10004KT P6SM VCSH SCT030 BKN050=



000
FTUS43 KDMX 171259 AAA
TAFFOD
TAF AMD
KFOD 171259Z 1713/1812 VRB04KT P6SM SCT120
     FM171800 10005KT P6SM SCT050 BKN100=



000
FTUS43 KDMX 171259 AAA
TAFFOD
TAF AMD
KFOD 171259Z 1713/1812 VRB04KT P6SM SCT120
     FM171800 10005KT P6SM SCT050 BKN100=



000
FTUS43 KDMX 171259 AAA
TAFFOD
TAF AMD
KFOD 171259Z 1713/1812 VRB04KT P6SM SCT120
     FM171800 10005KT P6SM SCT050 BKN100=



000
FTUS43 KDMX 171129
TAFMCW
TAF
KMCW 171129Z 1712/1812 VRB04KT P6SM BKN060 BKN100
     FM180600 08005KT P6SM SCT040 BKN060=



000
FTUS43 KDMX 171129
TAFDSM
TAF
KDSM 171129Z 1712/1812 VRB05KT P6SM BKN050
     FM171800 13005KT P6SM SCT040 BKN080
     FM180800 10004KT P6SM VCSH SCT030 BKN050=



000
FTUS43 KDMX 171129
TAFMCW
TAF
KMCW 171129Z 1712/1812 VRB04KT P6SM BKN060 BKN100
     FM180600 08005KT P6SM SCT040 BKN060=



000
FTUS43 KDMX 171129
TAFDSM
TAF
KDSM 171129Z 1712/1812 VRB05KT P6SM BKN050
     FM171800 13005KT P6SM SCT040 BKN080
     FM180800 10004KT P6SM VCSH SCT030 BKN050=



000
FTUS43 KDMX 171129
TAFOTM
TAF
KOTM 171129Z 1712/1812 11005KT P6SM BKN050
     FM171500 11005KT P6SM BKN050
     FM181000 10005KT P6SM VCSH SCT030 BKN050=



000
FTUS43 KDMX 171129
TAFFOD
TAF
KFOD 171129Z 1712/1812 VRB04KT P6SM SCT060 BKN120
     FM171800 10005KT P6SM SCT050 BKN100=



000
FTUS43 KDMX 171129
TAFALO
TAF
KALO 171129Z 1712/1812 VRB04KT P6SM BKN060
     FM180800 09004KT P6SM SCT040 BKN060=



000
FTUS43 KDMX 171129
TAFOTM
TAF
KOTM 171129Z 1712/1812 11005KT P6SM BKN050
     FM171500 11005KT P6SM BKN050
     FM181000 10005KT P6SM VCSH SCT030 BKN050=



000
FTUS43 KDMX 171129
TAFOTM
TAF
KOTM 171129Z 1712/1812 11005KT P6SM BKN050
     FM171500 11005KT P6SM BKN050
     FM181000 10005KT P6SM VCSH SCT030 BKN050=



000
FTUS43 KDMX 171129
TAFMCW
TAF
KMCW 171129Z 1712/1812 VRB04KT P6SM BKN060 BKN100
     FM180600 08005KT P6SM SCT040 BKN060=



000
FTUS43 KDMX 171129
TAFALO
TAF
KALO 171129Z 1712/1812 VRB04KT P6SM BKN060
     FM180800 09004KT P6SM SCT040 BKN060=



000
FTUS43 KDMX 171129
TAFALO
TAF
KALO 171129Z 1712/1812 VRB04KT P6SM BKN060
     FM180800 09004KT P6SM SCT040 BKN060=



000
FTUS43 KDMX 171129
TAFDSM
TAF
KDSM 171129Z 1712/1812 VRB05KT P6SM BKN050
     FM171800 13005KT P6SM SCT040 BKN080
     FM180800 10004KT P6SM VCSH SCT030 BKN050=



000
FTUS43 KDMX 171129
TAFFOD
TAF
KFOD 171129Z 1712/1812 VRB04KT P6SM SCT060 BKN120
     FM171800 10005KT P6SM SCT050 BKN100=



000
FTUS43 KDMX 171129
TAFMCW
TAF
KMCW 171129Z 1712/1812 VRB04KT P6SM BKN060 BKN100
     FM180600 08005KT P6SM SCT040 BKN060=



000
FTUS43 KDMX 171129
TAFFOD
TAF
KFOD 171129Z 1712/1812 VRB04KT P6SM SCT060 BKN120
     FM171800 10005KT P6SM SCT050 BKN100=



000
FTUS43 KDMX 171129
TAFOTM
TAF
KOTM 171129Z 1712/1812 11005KT P6SM BKN050
     FM171500 11005KT P6SM BKN050
     FM181000 10005KT P6SM VCSH SCT030 BKN050=



000
FTUS43 KDMX 171129
TAFFOD
TAF
KFOD 171129Z 1712/1812 VRB04KT P6SM SCT060 BKN120
     FM171800 10005KT P6SM SCT050 BKN100=



000
FTUS43 KDMX 170520
TAFALO
TAF
KALO 170520Z 1706/1806 VRB04KT P6SM BKN060=



000
FTUS43 KDMX 170520
TAFFOD
TAF
KFOD 170520Z 1706/1806 VRB04KT P6SM SCT060 BKN120=



000
FTUS43 KDMX 170520
TAFDSM
TAF
KDSM 170520Z 1706/1806 VRB05KT P6SM BKN050=



000
FTUS43 KDMX 170520
TAFDSM
TAF
KDSM 170520Z 1706/1806 VRB05KT P6SM BKN050=



000
FTUS43 KDMX 170520
TAFMCW
TAF
KMCW 170520Z 1706/1806 VRB04KT P6SM BKN060 BKN120=



000
FTUS43 KDMX 170520
TAFOTM
TAF
KOTM 170520Z 1706/1806 VRB05KT P6SM BKN040=



000
FTUS43 KDMX 170520
TAFFOD
TAF
KFOD 170520Z 1706/1806 VRB04KT P6SM SCT060 BKN120=



000
FTUS43 KDMX 170520
TAFOTM
TAF
KOTM 170520Z 1706/1806 VRB05KT P6SM BKN040=



000
FTUS43 KDMX 170520
TAFOTM
TAF
KOTM 170520Z 1706/1806 VRB05KT P6SM BKN040=



000
FTUS43 KDMX 170520
TAFALO
TAF
KALO 170520Z 1706/1806 VRB04KT P6SM BKN060=



000
FTUS43 KDMX 170520
TAFDSM
TAF
KDSM 170520Z 1706/1806 VRB05KT P6SM BKN050=



000
FTUS43 KDMX 170520
TAFDSM
TAF
KDSM 170520Z 1706/1806 VRB05KT P6SM BKN050=



000
FTUS43 KDMX 170520
TAFOTM
TAF
KOTM 170520Z 1706/1806 VRB05KT P6SM BKN040=



000
FTUS43 KDMX 170520
TAFMCW
TAF
KMCW 170520Z 1706/1806 VRB04KT P6SM BKN060 BKN120=



000
FTUS43 KDMX 170520
TAFALO
TAF
KALO 170520Z 1706/1806 VRB04KT P6SM BKN060=



000
FTUS43 KDMX 170520
TAFALO
TAF
KALO 170520Z 1706/1806 VRB04KT P6SM BKN060=



000
FTUS43 KDMX 170520
TAFMCW
TAF
KMCW 170520Z 1706/1806 VRB04KT P6SM BKN060 BKN120=



000
FTUS43 KDMX 170520
TAFMCW
TAF
KMCW 170520Z 1706/1806 VRB04KT P6SM BKN060 BKN120=



000
FTUS43 KDMX 170520
TAFFOD
TAF
KFOD 170520Z 1706/1806 VRB04KT P6SM SCT060 BKN120=



000
FTUS43 KDMX 170520
TAFFOD
TAF
KFOD 170520Z 1706/1806 VRB04KT P6SM SCT060 BKN120=



000
FTUS43 KDMX 162328
TAFOTM
TAF
KOTM 162328Z 1700/1724 VRB04KT P6SM BKN060
     FM170800 10002KT 5SM BR OVC030
     FM171300 14007KT P6SM OVC035
     FM172200 11008KT P6SM OVC040=



000
FTUS43 KDMX 162328
TAFDSM
TAF
KDSM 162328Z 1700/1724 VRB04KT P6SM BKN060
     FM170800 10002KT 5SM BR OVC030
     FM171300 14007KT P6SM OVC035
     FM172200 11008KT P6SM VCSH OVC040=



000
FTUS43 KDMX 162328
TAFMCW
TAF
KMCW 162328Z 1700/1724 24006KT P6SM OVC070
     FM170900 00000KT 5SM BR OVC040
     FM171500 29006KT P6SM SCT040 BKN100
     FM172300 32006KT 6SM -SHRA SCT040 OVC060=



000
FTUS43 KDMX 162328
TAFOTM
TAF
KOTM 162328Z 1700/1724 VRB04KT P6SM BKN060
     FM170800 10002KT 5SM BR OVC030
     FM171300 14007KT P6SM OVC035
     FM172200 11008KT P6SM OVC040=



000
FTUS43 KDMX 162328
TAFMCW
TAF
KMCW 162328Z 1700/1724 24006KT P6SM OVC070
     FM170900 00000KT 5SM BR OVC040
     FM171500 29006KT P6SM SCT040 BKN100
     FM172300 32006KT 6SM -SHRA SCT040 OVC060=



000
FTUS43 KDMX 162328
TAFFOD
TAF
KFOD 162328Z 1700/1724 24006KT P6SM OVC080
     FM170900 00000KT P6SM OVC040
     FM172100 23006KT 6SM -SHRA SCT040 OVC060=



000
FTUS43 KDMX 162328
TAFFOD
TAF
KFOD 162328Z 1700/1724 24006KT P6SM OVC080
     FM170900 00000KT P6SM OVC040
     FM172100 23006KT 6SM -SHRA SCT040 OVC060=



000
FTUS43 KDMX 162328
TAFALO
TAF
KALO 162328Z 1700/1724 20004KT P6SM BKN070
     FM171400 23005KT P6SM BKN060
     FM172300 29006KT P6SM OVC050=



000
FTUS43 KDMX 162328
TAFALO
TAF
KALO 162328Z 1700/1724 20004KT P6SM BKN070
     FM171400 23005KT P6SM BKN060
     FM172300 29006KT P6SM OVC050=



000
FTUS43 KDMX 162328
TAFDSM
TAF
KDSM 162328Z 1700/1724 VRB04KT P6SM BKN060
     FM170800 10002KT 5SM BR OVC030
     FM171300 14007KT P6SM OVC035
     FM172200 11008KT P6SM VCSH OVC040=



000
FTUS43 KDMX 162328
TAFOTM
TAF
KOTM 162328Z 1700/1724 VRB04KT P6SM BKN060
     FM170800 10002KT 5SM BR OVC030
     FM171300 14007KT P6SM OVC035
     FM172200 11008KT P6SM OVC040=



000
FTUS43 KDMX 162328
TAFFOD
TAF
KFOD 162328Z 1700/1724 24006KT P6SM OVC080
     FM170900 00000KT P6SM OVC040
     FM172100 23006KT 6SM -SHRA SCT040 OVC060=



000
FTUS43 KDMX 162328
TAFMCW
TAF
KMCW 162328Z 1700/1724 24006KT P6SM OVC070
     FM170900 00000KT 5SM BR OVC040
     FM171500 29006KT P6SM SCT040 BKN100
     FM172300 32006KT 6SM -SHRA SCT040 OVC060=



000
FTUS43 KDMX 162328
TAFALO
TAF
KALO 162328Z 1700/1724 20004KT P6SM BKN070
     FM171400 23005KT P6SM BKN060
     FM172300 29006KT P6SM OVC050=



000
FTUS43 KDMX 162328
TAFDSM
TAF
KDSM 162328Z 1700/1724 VRB04KT P6SM BKN060
     FM170800 10002KT 5SM BR OVC030
     FM171300 14007KT P6SM OVC035
     FM172200 11008KT P6SM VCSH OVC040=



000
FTUS43 KDMX 162328
TAFOTM
TAF
KOTM 162328Z 1700/1724 VRB04KT P6SM BKN060
     FM170800 10002KT 5SM BR OVC030
     FM171300 14007KT P6SM OVC035
     FM172200 11008KT P6SM OVC040=



000
FTUS43 KDMX 162328
TAFMCW
TAF
KMCW 162328Z 1700/1724 24006KT P6SM OVC070
     FM170900 00000KT 5SM BR OVC040
     FM171500 29006KT P6SM SCT040 BKN100
     FM172300 32006KT 6SM -SHRA SCT040 OVC060=



000
FTUS43 KDMX 162328
TAFALO
TAF
KALO 162328Z 1700/1724 20004KT P6SM BKN070
     FM171400 23005KT P6SM BKN060
     FM172300 29006KT P6SM OVC050=



000
FTUS43 KDMX 162328
TAFFOD
TAF
KFOD 162328Z 1700/1724 24006KT P6SM OVC080
     FM170900 00000KT P6SM OVC040
     FM172100 23006KT 6SM -SHRA SCT040 OVC060=



000
FTUS43 KDMX 162328
TAFDSM
TAF
KDSM 162328Z 1700/1724 VRB04KT P6SM BKN060
     FM170800 10002KT 5SM BR OVC030
     FM171300 14007KT P6SM OVC035
     FM172200 11008KT P6SM VCSH OVC040=



000
FTUS43 KDMX 161720
TAFDSM
TAF
KDSM 161720Z 1618/1718 18006KT P6SM BKN060
     FM170000 VRB04KT P6SM SCT060 BKN120=



000
FTUS43 KDMX 161720
TAFOTM
TAF
KOTM 161720Z 1618/1718 VRB05KT P6SM SCT080=



000
FTUS43 KDMX 161720
TAFALO
TAF
KALO 161720Z 1618/1718 18005KT P6SM BKN080
     FM171200 VRB04KT P6SM BKN060=



000
FTUS43 KDMX 161720
TAFOTM
TAF
KOTM 161720Z 1618/1718 VRB05KT P6SM SCT080=



000
FTUS43 KDMX 161720
TAFMCW
TAF
KMCW 161720Z 1618/1718 19008KT P6SM OVC060
     FM170000 VRB04KT P6SM OVC080=



000
FTUS43 KDMX 161720
TAFFOD
TAF
KFOD 161720Z 1618/1718 18004KT P6SM SCT060
     FM170000 VRB04KT P6SM BKN080=



000
FTUS43 KDMX 161720
TAFMCW
TAF
KMCW 161720Z 1618/1718 19008KT P6SM OVC060
     FM170000 VRB04KT P6SM OVC080=



000
FTUS43 KDMX 161720
TAFFOD
TAF
KFOD 161720Z 1618/1718 18004KT P6SM SCT060
     FM170000 VRB04KT P6SM BKN080=



000
FTUS43 KDMX 161720
TAFOTM
TAF
KOTM 161720Z 1618/1718 VRB05KT P6SM SCT080=



000
FTUS43 KDMX 161720
TAFALO
TAF
KALO 161720Z 1618/1718 18005KT P6SM BKN080
     FM171200 VRB04KT P6SM BKN060=



000
FTUS43 KDMX 161720
TAFALO
TAF
KALO 161720Z 1618/1718 18005KT P6SM BKN080
     FM171200 VRB04KT P6SM BKN060=



000
FTUS43 KDMX 161720
TAFDSM
TAF
KDSM 161720Z 1618/1718 18006KT P6SM BKN060
     FM170000 VRB04KT P6SM SCT060 BKN120=



000
FTUS43 KDMX 161720
TAFOTM
TAF
KOTM 161720Z 1618/1718 VRB05KT P6SM SCT080=



000
FTUS43 KDMX 161720
TAFMCW
TAF
KMCW 161720Z 1618/1718 19008KT P6SM OVC060
     FM170000 VRB04KT P6SM OVC080=



000
FTUS43 KDMX 161720
TAFFOD
TAF
KFOD 161720Z 1618/1718 18004KT P6SM SCT060
     FM170000 VRB04KT P6SM BKN080=



000
FTUS43 KDMX 161720
TAFDSM
TAF
KDSM 161720Z 1618/1718 18006KT P6SM BKN060
     FM170000 VRB04KT P6SM SCT060 BKN120=



000
FTUS43 KDMX 161720
TAFALO
TAF
KALO 161720Z 1618/1718 18005KT P6SM BKN080
     FM171200 VRB04KT P6SM BKN060=



000
FTUS43 KDMX 161720
TAFMCW
TAF
KMCW 161720Z 1618/1718 19008KT P6SM OVC060
     FM170000 VRB04KT P6SM OVC080=



000
FTUS43 KDMX 161720
TAFDSM
TAF
KDSM 161720Z 1618/1718 18006KT P6SM BKN060
     FM170000 VRB04KT P6SM SCT060 BKN120=



000
FTUS43 KDMX 161720
TAFFOD
TAF
KFOD 161720Z 1618/1718 18004KT P6SM SCT060
     FM170000 VRB04KT P6SM BKN080=



000
FTUS43 KDMX 161454 AAA
TAFFOD
TAF AMD
KFOD 161454Z 1615/1712 12004KT P6SM SCT060
     FM161800 19007KT P6SM OVC050
     FM170000 VRB04KT P6SM SCT040 OVC070=



000
FTUS43 KDMX 161454 AAA
TAFFOD
TAF AMD
KFOD 161454Z 1615/1712 12004KT P6SM SCT060
     FM161800 19007KT P6SM OVC050
     FM170000 VRB04KT P6SM SCT040 OVC070=



000
FTUS43 KDMX 161120
TAFALO
TAF
KALO 161120Z 1612/1712 13006KT P6SM BKN080
     FM170000 VRB04KT P6SM BKN060=



000
FTUS43 KDMX 161120
TAFDSM
TAF
KDSM 161120Z 1612/1712 09006KT P6SM SCT025 BKN035
     FM161500 15005KT P6SM SCT040 BKN060
     FM162000 19007KT P6SM BKN060
     FM170400 VRB04KT P6SM OVC050=



000
FTUS43 KDMX 161120
TAFALO
TAF
KALO 161120Z 1612/1712 13006KT P6SM BKN080
     FM170000 VRB04KT P6SM BKN060=



000
FTUS43 KDMX 161120
TAFALO
TAF
KALO 161120Z 1612/1712 13006KT P6SM BKN080
     FM170000 VRB04KT P6SM BKN060=



000
FTUS43 KDMX 161120
TAFMCW
TAF
KMCW 161120Z 1612/1712 12008KT P6SM SCT040 BKN060
     FM161600 15008KT P6SM BKN070
     FM170000 22006KT P6SM SCT040 OVC080
     FM170600 29003KT P6SM OVC040=



000
FTUS43 KDMX 161120
TAFOTM
TAF
KOTM 161120Z 1612/1712 09006KT P6SM BKN080
     FM161500 11003KT P6SM SCT040 BKN060
     FM162100 16004KT P6SM BKN050
     FM170600 VRB04KT P6SM OVC050=



000
FTUS43 KDMX 161120
TAFFOD
TAF
KFOD 161120Z 1612/1712 12004KT P6SM SCT025 OVC035
     FM161800 19007KT P6SM OVC050
     FM170000 VRB04KT P6SM SCT040 OVC070=



000
FTUS43 KDMX 161120
TAFDSM
TAF
KDSM 161120Z 1612/1712 09006KT P6SM SCT025 BKN035
     FM161500 15005KT P6SM SCT040 BKN060
     FM162000 19007KT P6SM BKN060
     FM170400 VRB04KT P6SM OVC050=



000
FTUS43 KDMX 161120
TAFFOD
TAF
KFOD 161120Z 1612/1712 12004KT P6SM SCT025 OVC035
     FM161800 19007KT P6SM OVC050
     FM170000 VRB04KT P6SM SCT040 OVC070=



000
FTUS43 KDMX 161120
TAFFOD
TAF
KFOD 161120Z 1612/1712 12004KT P6SM SCT025 OVC035
     FM161800 19007KT P6SM OVC050
     FM170000 VRB04KT P6SM SCT040 OVC070=



000
FTUS43 KDMX 161120
TAFDSM
TAF
KDSM 161120Z 1612/1712 09006KT P6SM SCT025 BKN035
     FM161500 15005KT P6SM SCT040 BKN060
     FM162000 19007KT P6SM BKN060
     FM170400 VRB04KT P6SM OVC050=



000
FTUS43 KDMX 161120
TAFMCW
TAF
KMCW 161120Z 1612/1712 12008KT P6SM SCT040 BKN060
     FM161600 15008KT P6SM BKN070
     FM170000 22006KT P6SM SCT040 OVC080
     FM170600 29003KT P6SM OVC040=



000
FTUS43 KDMX 161120
TAFFOD
TAF
KFOD 161120Z 1612/1712 12004KT P6SM SCT025 OVC035
     FM161800 19007KT P6SM OVC050
     FM170000 VRB04KT P6SM SCT040 OVC070=



000
FTUS43 KDMX 161120
TAFALO
TAF
KALO 161120Z 1612/1712 13006KT P6SM BKN080
     FM170000 VRB04KT P6SM BKN060=



000
FTUS43 KDMX 161120
TAFOTM
TAF
KOTM 161120Z 1612/1712 09006KT P6SM BKN080
     FM161500 11003KT P6SM SCT040 BKN060
     FM162100 16004KT P6SM BKN050
     FM170600 VRB04KT P6SM OVC050=



000
FTUS43 KDMX 161120
TAFMCW
TAF
KMCW 161120Z 1612/1712 12008KT P6SM SCT040 BKN060
     FM161600 15008KT P6SM BKN070
     FM170000 22006KT P6SM SCT040 OVC080
     FM170600 29003KT P6SM OVC040=



000
FTUS43 KDMX 161120
TAFMCW
TAF
KMCW 161120Z 1612/1712 12008KT P6SM SCT040 BKN060
     FM161600 15008KT P6SM BKN070
     FM170000 22006KT P6SM SCT040 OVC080
     FM170600 29003KT P6SM OVC040=



000
FTUS43 KDMX 161120
TAFOTM
TAF
KOTM 161120Z 1612/1712 09006KT P6SM BKN080
     FM161500 11003KT P6SM SCT040 BKN060
     FM162100 16004KT P6SM BKN050
     FM170600 VRB04KT P6SM OVC050=



000
FTUS43 KDMX 161120
TAFOTM
TAF
KOTM 161120Z 1612/1712 09006KT P6SM BKN080
     FM161500 11003KT P6SM SCT040 BKN060
     FM162100 16004KT P6SM BKN050
     FM170600 VRB04KT P6SM OVC050=



000
FTUS43 KDMX 161120
TAFDSM
TAF
KDSM 161120Z 1612/1712 09006KT P6SM SCT025 BKN035
     FM161500 15005KT P6SM SCT040 BKN060
     FM162000 19007KT P6SM BKN060
     FM170400 VRB04KT P6SM OVC050=



000
FTUS43 KDMX 160520
TAFALO
TAF
KALO 160520Z 1606/1706 12011KT P6SM BKN100
      TEMPO 1607/1608 -SHRA BKN040
     FM162100 17006KT P6SM BKN060
     FM170400 VRB02KT P6SM BKN050=



000
FTUS43 KDMX 160520
TAFDSM
TAF
KDSM 160520Z 1606/1706 11008KT P6SM OVC060
     FM161000 09006KT P6SM BKN040
     FM161500 15005KT P6SM SCT040 BKN060
     FM162200 19007KT P6SM BKN035
     FM170300 22005KT P6SM OVC030=



000
FTUS43 KDMX 160520
TAFDSM
TAF
KDSM 160520Z 1606/1706 11008KT P6SM OVC060
     FM161000 09006KT P6SM BKN040
     FM161500 15005KT P6SM SCT040 BKN060
     FM162200 19007KT P6SM BKN035
     FM170300 22005KT P6SM OVC030=



000
FTUS43 KDMX 160520
TAFDSM
TAF
KDSM 160520Z 1606/1706 11008KT P6SM OVC060
     FM161000 09006KT P6SM BKN040
     FM161500 15005KT P6SM SCT040 BKN060
     FM162200 19007KT P6SM BKN035
     FM170300 22005KT P6SM OVC030=



000
FTUS43 KDMX 160520
TAFOTM
TAF
KOTM 160520Z 1606/1706 08009KT P6SM OVC070
     FM161000 09006KT P6SM BKN060
     FM161500 VRB03KT P6SM SCT040 BKN060
     FM162200 18007KT P6SM BKN035
     FM170300 14005KT P6SM OVC030=



000
FTUS43 KDMX 160520
TAFFOD
TAF
KFOD 160520Z 1606/1706 11007KT P6SM OVC070
     FM161600 18007KT P6SM OVC050
     FM162200 23006KT P6SM OVC035
     FM170400 VRB02KT P6SM VCSH OVC030=



000
FTUS43 KDMX 160520
TAFALO
TAF
KALO 160520Z 1606/1706 12011KT P6SM BKN100
      TEMPO 1607/1608 -SHRA BKN040
     FM162100 17006KT P6SM BKN060
     FM170400 VRB02KT P6SM BKN050=



000
FTUS43 KDMX 160520
TAFFOD
TAF
KFOD 160520Z 1606/1706 11007KT P6SM OVC070
     FM161600 18007KT P6SM OVC050
     FM162200 23006KT P6SM OVC035
     FM170400 VRB02KT P6SM VCSH OVC030=



000
FTUS43 KDMX 160520
TAFMCW
TAF
KMCW 160520Z 1606/1706 11009KT P6SM BKN100
      TEMPO 1606/1607 -SHRA BKN040
     FM161600 15006KT P6SM BKN070
     FM162200 24007KT P6SM OVC050
     FM170500 28003KT P6SM OVC040=



000
FTUS43 KDMX 160520
TAFOTM
TAF
KOTM 160520Z 1606/1706 08009KT P6SM OVC070
     FM161000 09006KT P6SM BKN060
     FM161500 VRB03KT P6SM SCT040 BKN060
     FM162200 18007KT P6SM BKN035
     FM170300 14005KT P6SM OVC030=



000
FTUS43 KDMX 160520
TAFMCW
TAF
KMCW 160520Z 1606/1706 11009KT P6SM BKN100
      TEMPO 1606/1607 -SHRA BKN040
     FM161600 15006KT P6SM BKN070
     FM162200 24007KT P6SM OVC050
     FM170500 28003KT P6SM OVC040=



000
FTUS43 KDMX 160520
TAFALO
TAF
KALO 160520Z 1606/1706 12011KT P6SM BKN100
      TEMPO 1607/1608 -SHRA BKN040
     FM162100 17006KT P6SM BKN060
     FM170400 VRB02KT P6SM BKN050=



000
FTUS43 KDMX 160520
TAFDSM
TAF
KDSM 160520Z 1606/1706 11008KT P6SM OVC060
     FM161000 09006KT P6SM BKN040
     FM161500 15005KT P6SM SCT040 BKN060
     FM162200 19007KT P6SM BKN035
     FM170300 22005KT P6SM OVC030=



000
FTUS43 KDMX 160520
TAFMCW
TAF
KMCW 160520Z 1606/1706 11009KT P6SM BKN100
      TEMPO 1606/1607 -SHRA BKN040
     FM161600 15006KT P6SM BKN070
     FM162200 24007KT P6SM OVC050
     FM170500 28003KT P6SM OVC040=



000
FTUS43 KDMX 160520
TAFFOD
TAF
KFOD 160520Z 1606/1706 11007KT P6SM OVC070
     FM161600 18007KT P6SM OVC050
     FM162200 23006KT P6SM OVC035
     FM170400 VRB02KT P6SM VCSH OVC030=



000
FTUS43 KDMX 160520
TAFALO
TAF
KALO 160520Z 1606/1706 12011KT P6SM BKN100
      TEMPO 1607/1608 -SHRA BKN040
     FM162100 17006KT P6SM BKN060
     FM170400 VRB02KT P6SM BKN050=



000
FTUS43 KDMX 160520
TAFOTM
TAF
KOTM 160520Z 1606/1706 08009KT P6SM OVC070
     FM161000 09006KT P6SM BKN060
     FM161500 VRB03KT P6SM SCT040 BKN060
     FM162200 18007KT P6SM BKN035
     FM170300 14005KT P6SM OVC030=



000
FTUS43 KDMX 160242 AAA
TAFFOD
TAF AMD
KFOD 160242Z 1603/1624 09006KT P6SM OVC080
     FM161500 18007KT P6SM BKN040 OVC070
     FM162200 23006KT P6SM VCSH OVC035=



000
FTUS43 KDMX 160242 AAA
TAFFOD
TAF AMD
KFOD 160242Z 1603/1624 09006KT P6SM OVC080
     FM161500 18007KT P6SM BKN040 OVC070
     FM162200 23006KT P6SM VCSH OVC035=



000
FTUS43 KDMX 160139 AAA
TAFOTM
TAF AMD
KOTM 160139Z 1602/1624 09008KT P6SM BKN070
     FM162200 VRB05KT P6SM BKN040=



000
FTUS43 KDMX 160139 AAA
TAFOTM
TAF AMD
KOTM 160139Z 1602/1624 09008KT P6SM BKN070
     FM162200 VRB05KT P6SM BKN040=



000
FTUS43 KDMX 152343
TAFALO
TAF
KALO 152343Z 1600/1624 10014KT P6SM SCT100
     FM160600 13008KT P6SM BKN100
     FM162100 20006KT P6SM BKN050=



000
FTUS43 KDMX 152343
TAFFOD
TAF
KFOD 152343Z 1600/1624 12012KT P6SM BKN100
      TEMPO 1600/1602 -SHRA BKN040
     FM161500 18007KT P6SM BKN040 OVC070
     FM162200 23006KT P6SM VCSH OVC035=



000
FTUS43 KDMX 152343
TAFFOD
TAF
KFOD 152343Z 1600/1624 12012KT P6SM BKN100
      TEMPO 1600/1602 -SHRA BKN040
     FM161500 18007KT P6SM BKN040 OVC070
     FM162200 23006KT P6SM VCSH OVC035=



000
FTUS43 KDMX 152343
TAFOTM
TAF
KOTM 152343Z 1600/1624 12015KT P6SM BKN110
     FM161000 09006KT P6SM BKN050
     FM162200 VRB05KT P6SM BKN040=



000
FTUS43 KDMX 152343
TAFDSM
TAF
KDSM 152343Z 1600/1624 11011KT P6SM BKN090 OVC150
     FM161000 09006KT P6SM BKN040
     FM162200 18007KT P6SM BKN035=



000
FTUS43 KDMX 152343
TAFDSM
TAF
KDSM 152343Z 1600/1624 11011KT P6SM BKN090 OVC150
     FM161000 09006KT P6SM BKN040
     FM162200 18007KT P6SM BKN035=



000
FTUS43 KDMX 152343
TAFDSM
TAF
KDSM 152343Z 1600/1624 11011KT P6SM BKN090 OVC150
     FM161000 09006KT P6SM BKN040
     FM162200 18007KT P6SM BKN035=



000
FTUS43 KDMX 152343
TAFMCW
TAF
KMCW 152343Z 1600/1624 12009KT P6SM BKN100
      TEMPO 1601/1603 -SHRA BKN040
     FM161600 16008KT P6SM BKN050
     FM162200 26007KT P6SM OVC050=



000
FTUS43 KDMX 152343
TAFMCW
TAF
KMCW 152343Z 1600/1624 12009KT P6SM BKN100
      TEMPO 1601/1603 -SHRA BKN040
     FM161600 16008KT P6SM BKN050
     FM162200 26007KT P6SM OVC050=



000
FTUS43 KDMX 152343
TAFALO
TAF
KALO 152343Z 1600/1624 10014KT P6SM SCT100
     FM160600 13008KT P6SM BKN100
     FM162100 20006KT P6SM BKN050=



000
FTUS43 KDMX 152343
TAFALO
TAF
KALO 152343Z 1600/1624 10014KT P6SM SCT100
     FM160600 13008KT P6SM BKN100
     FM162100 20006KT P6SM BKN050=



000
FTUS43 KDMX 152343
TAFOTM
TAF
KOTM 152343Z 1600/1624 12015KT P6SM BKN110
     FM161000 09006KT P6SM BKN050
     FM162200 VRB05KT P6SM BKN040=



000
FTUS43 KDMX 152343
TAFFOD
TAF
KFOD 152343Z 1600/1624 12012KT P6SM BKN100
      TEMPO 1600/1602 -SHRA BKN040
     FM161500 18007KT P6SM BKN040 OVC070
     FM162200 23006KT P6SM VCSH OVC035=



000
FTUS43 KDMX 152343
TAFOTM
TAF
KOTM 152343Z 1600/1624 12015KT P6SM BKN110
     FM161000 09006KT P6SM BKN050
     FM162200 VRB05KT P6SM BKN040=



000
FTUS43 KDMX 152343
TAFALO
TAF
KALO 152343Z 1600/1624 10014KT P6SM SCT100
     FM160600 13008KT P6SM BKN100
     FM162100 20006KT P6SM BKN050=



000
FTUS43 KDMX 152343
TAFDSM
TAF
KDSM 152343Z 1600/1624 11011KT P6SM BKN090 OVC150
     FM161000 09006KT P6SM BKN040
     FM162200 18007KT P6SM BKN035=



000
FTUS43 KDMX 152343
TAFMCW
TAF
KMCW 152343Z 1600/1624 12009KT P6SM BKN100
      TEMPO 1601/1603 -SHRA BKN040
     FM161600 16008KT P6SM BKN050
     FM162200 26007KT P6SM OVC050=



000
FTUS43 KDMX 152343
TAFOTM
TAF
KOTM 152343Z 1600/1624 12015KT P6SM BKN110
     FM161000 09006KT P6SM BKN050
     FM162200 VRB05KT P6SM BKN040=



000
FTUS43 KDMX 152343
TAFMCW
TAF
KMCW 152343Z 1600/1624 12009KT P6SM BKN100
      TEMPO 1601/1603 -SHRA BKN040
     FM161600 16008KT P6SM BKN050
     FM162200 26007KT P6SM OVC050=



000
FTUS43 KDMX 152343
TAFFOD
TAF
KFOD 152343Z 1600/1624 12012KT P6SM BKN100
      TEMPO 1600/1602 -SHRA BKN040
     FM161500 18007KT P6SM BKN040 OVC070
     FM162200 23006KT P6SM VCSH OVC035=



000
FTUS43 KDMX 151720
TAFOTM
TAF
KOTM 151720Z 1518/1618 12015G25KT P6SM BKN150
     FM160000 09007KT P6SM BKN060 OVC120=



000
FTUS43 KDMX 151720
TAFFOD
TAF
KFOD 151720Z 1518/1618 15015G20KT P6SM OVC120
     FM160000 12008KT P6SM BKN100=



000
FTUS43 KDMX 151720
TAFMCW
TAF
KMCW 151720Z 1518/1618 13016G25KT P6SM BKN150
     FM160000 12009KT P6SM BKN100=



000
FTUS43 KDMX 151720
TAFALO
TAF
KALO 151720Z 1518/1618 11016G25KT P6SM SCT150
     FM160000 12008KT P6SM BKN100=



000
FTUS43 KDMX 151720
TAFOTM
TAF
KOTM 151720Z 1518/1618 12015G25KT P6SM BKN150
     FM160000 09007KT P6SM BKN060 OVC120=



000
FTUS43 KDMX 151720
TAFDSM
TAF
KDSM 151720Z 1518/1618 14016G25KT P6SM BKN150 OVC250
     FM160000 11007KT P6SM BKN080 OVC150=



000
FTUS43 KDMX 151720
TAFALO
TAF
KALO 151720Z 1518/1618 11016G25KT P6SM SCT150
     FM160000 12008KT P6SM BKN100=



000
FTUS43 KDMX 151720
TAFMCW
TAF
KMCW 151720Z 1518/1618 13016G25KT P6SM BKN150
     FM160000 12009KT P6SM BKN100=



000
FTUS43 KDMX 151720
TAFFOD
TAF
KFOD 151720Z 1518/1618 15015G20KT P6SM OVC120
     FM160000 12008KT P6SM BKN100=



000
FTUS43 KDMX 151720
TAFDSM
TAF
KDSM 151720Z 1518/1618 14016G25KT P6SM BKN150 OVC250
     FM160000 11007KT P6SM BKN080 OVC150=



000
FTUS43 KDMX 151136
TAFALO
TAF
KALO 151136Z 1512/1612 12008KT P6SM SCT150
     FM151500 12012G19KT P6SM BKN120
     FM160000 11009KT P6SM BKN070=



000
FTUS43 KDMX 151136
TAFFOD
TAF
KFOD 151136Z 1512/1612 12007KT P6SM SCT150
     FM151500 13014G20KT P6SM BKN120
     FM160000 12010KT P6SM BKN070=



000
FTUS43 KDMX 151136
TAFMCW
TAF
KMCW 151136Z 1512/1612 14008KT P6SM SCT150
     FM151500 13014G21KT P6SM BKN120
     FM160000 12011KT P6SM BKN070=



000
FTUS43 KDMX 151136
TAFOTM
TAF
KOTM 151136Z 1512/1612 10009KT P6SM SCT070 BKN120
     FM151500 11013G19KT P6SM BKN100
     FM160000 10009KT P6SM BKN060=



000
FTUS43 KDMX 151136
TAFOTM
TAF
KOTM 151136Z 1512/1612 10009KT P6SM SCT070 BKN120
     FM151500 11013G19KT P6SM BKN100
     FM160000 10009KT P6SM BKN060=



000
FTUS43 KDMX 151136
TAFDSM
TAF
KDSM 151136Z 1512/1612 11009KT P6SM SCT070 BKN120
     FM151500 13012G18KT P6SM BKN100
     FM160000 11008KT P6SM BKN060=



000
FTUS43 KDMX 151136
TAFFOD
TAF
KFOD 151136Z 1512/1612 12007KT P6SM SCT150
     FM151500 13014G20KT P6SM BKN120
     FM160000 12010KT P6SM BKN070=



000
FTUS43 KDMX 151136
TAFMCW
TAF
KMCW 151136Z 1512/1612 14008KT P6SM SCT150
     FM151500 13014G21KT P6SM BKN120
     FM160000 12011KT P6SM BKN070=



000
FTUS43 KDMX 151136
TAFALO
TAF
KALO 151136Z 1512/1612 12008KT P6SM SCT150
     FM151500 12012G19KT P6SM BKN120
     FM160000 11009KT P6SM BKN070=



000
FTUS43 KDMX 151136
TAFDSM
TAF
KDSM 151136Z 1512/1612 11009KT P6SM SCT070 BKN120
     FM151500 13012G18KT P6SM BKN100
     FM160000 11008KT P6SM BKN060=



000
FTUS43 KDMX 151136
TAFOTM
TAF
KOTM 151136Z 1512/1612 10009KT P6SM SCT070 BKN120
     FM151500 11013G19KT P6SM BKN100
     FM160000 10009KT P6SM BKN060=



000
FTUS43 KDMX 151136
TAFALO
TAF
KALO 151136Z 1512/1612 12008KT P6SM SCT150
     FM151500 12012G19KT P6SM BKN120
     FM160000 11009KT P6SM BKN070=



000
FTUS43 KDMX 151136
TAFFOD
TAF
KFOD 151136Z 1512/1612 12007KT P6SM SCT150
     FM151500 13014G20KT P6SM BKN120
     FM160000 12010KT P6SM BKN070=



000
FTUS43 KDMX 151136
TAFMCW
TAF
KMCW 151136Z 1512/1612 14008KT P6SM SCT150
     FM151500 13014G21KT P6SM BKN120
     FM160000 12011KT P6SM BKN070=



000
FTUS43 KDMX 151136
TAFDSM
TAF
KDSM 151136Z 1512/1612 11009KT P6SM SCT070 BKN120
     FM151500 13012G18KT P6SM BKN100
     FM160000 11008KT P6SM BKN060=



000
FTUS43 KDMX 151136
TAFMCW
TAF
KMCW 151136Z 1512/1612 14008KT P6SM SCT150
     FM151500 13014G21KT P6SM BKN120
     FM160000 12011KT P6SM BKN070=



000
FTUS43 KDMX 151136
TAFFOD
TAF
KFOD 151136Z 1512/1612 12007KT P6SM SCT150
     FM151500 13014G20KT P6SM BKN120
     FM160000 12010KT P6SM BKN070=



000
FTUS43 KDMX 151136
TAFALO
TAF
KALO 151136Z 1512/1612 12008KT P6SM SCT150
     FM151500 12012G19KT P6SM BKN120
     FM160000 11009KT P6SM BKN070=



000
FTUS43 KDMX 151136
TAFOTM
TAF
KOTM 151136Z 1512/1612 10009KT P6SM SCT070 BKN120
     FM151500 11013G19KT P6SM BKN100
     FM160000 10009KT P6SM BKN060=



000
FTUS43 KDMX 151136
TAFDSM
TAF
KDSM 151136Z 1512/1612 11009KT P6SM SCT070 BKN120
     FM151500 13012G18KT P6SM BKN100
     FM160000 11008KT P6SM BKN060=



000
FTUS43 KDMX 150520
TAFFOD
TAF
KFOD 150520Z 1506/1606 14004KT P6SM BKN180
     FM151500 14015G22KT P6SM BKN120
     FM152200 12010KT P6SM OVC080=



000
FTUS43 KDMX 150520
TAFMCW
TAF
KMCW 150520Z 1506/1606 14008KT P6SM BKN180
     FM151600 13016G22KT P6SM BKN150
     FM152200 11011KT P6SM OVC120=



000
FTUS43 KDMX 150520
TAFOTM
TAF
KOTM 150520Z 1506/1606 12006KT P6SM SCT070 BKN150
     FM151800 12014KT P6SM BKN100
     FM160000 10010KT P6SM OVC080=



000
FTUS43 KDMX 150520
TAFDSM
TAF
KDSM 150520Z 1506/1606 12006KT P6SM BKN170
     FM151800 12013KT P6SM BKN100=



000
FTUS43 KDMX 150520
TAFOTM
TAF
KOTM 150520Z 1506/1606 12006KT P6SM SCT070 BKN150
     FM151800 12014KT P6SM BKN100
     FM160000 10010KT P6SM OVC080=



000
FTUS43 KDMX 150520
TAFALO
TAF
KALO 150520Z 1506/1606 10005KT P6SM BKN180
     FM151800 12014KT P6SM BKN180=



000
FTUS43 KDMX 150520
TAFDSM
TAF
KDSM 150520Z 1506/1606 12006KT P6SM BKN170
     FM151800 12013KT P6SM BKN100=



000
FTUS43 KDMX 150520
TAFALO
TAF
KALO 150520Z 1506/1606 10005KT P6SM BKN180
     FM151800 12014KT P6SM BKN180=



000
FTUS43 KDMX 150520
TAFMCW
TAF
KMCW 150520Z 1506/1606 14008KT P6SM BKN180
     FM151600 13016G22KT P6SM BKN150
     FM152200 11011KT P6SM OVC120=



000
FTUS43 KDMX 150520
TAFFOD
TAF
KFOD 150520Z 1506/1606 14004KT P6SM BKN180
     FM151500 14015G22KT P6SM BKN120
     FM152200 12010KT P6SM OVC080=



    US Dept of Commerce
    National Oceanic and Atmospheric Administration
    National Weather Service
    1325 East West Highway
    Silver Spring, MD 20910
    Page Author: NWS Internet Services Team
Disclaimer
Information Quality
Credits
Glossary
Privacy Policy
Freedom of Information Act (FOIA)
About Us
Career Opportunities